sensor_id;sensor_type;location;lat;lon;timestamp;P1;durP1;ratioP1;P2;durP2;ratioP2
14007;SDS011;61651;45.508;12.232;2024-03-08T00:00:52;8.60;;;7.80;;
14007;SDS011;61651;45.508;12.232;2024-03-08T00:03:54;8.13;;;7.43;;
14007;SDS011;61651;45.508;12.232;2024-03-08T00:06:57;7.88;;;7.18;;
14007;SDS011;61651;45.508;12.232;2024-03-08T00:10:00;8.30;;;7.50;;
14007;SDS011;61651;45.508;12.232;2024-03-08T00:13:02;8.20;;;7.40;;
14007;SDS011;61651;45.508;12.232;2024-03-08T00:16:05;10.23;;;7.57;;
14007;SDS011;61651;45.508;12.232;2024-03-08T00:19:09;8.23;;;7.23;;
14007;SDS011;61651;45.508;12.232;2024-03-08T00:22:11;7.67;;;6.97;;
14007;SDS011;61651;45.508;12.232;2024-03-08T00:25:14;8.33;;;7.53;;
14007;SDS011;61651;45.508;12.232;2024-03-08T00:28:17;7.30;;;6.60;;
14007;SDS011;61651;45.508;12.232;2024-03-08T00:31:19;7.60;;;6.90;;
14007;SDS011;61651;45.508;12.232;2024-03-08T00:34:20;7.93;;;7.13;;
14007;SDS011;61651;45.508;12.232;2024-03-08T00:37:22;8.05;;;7.20;;
14007;SDS011;61651;45.508;12.232;2024-03-08T00:40:26;7.90;;;7.10;;
14007;SDS011;61651;45.508;12.232;2024-03-08T00:43:29;7.47;;;6.70;;
14007;SDS011;61651;45.508;12.232;2024-03-08T00:46:31;8.00;;;7.20;;
14007;SDS011;61651;45.508;12.232;2024-03-08T00:49:34;7.43;;;6.73;;
14007;SDS011;61651;45.508;12.232;2024-03-08T00:52:36;7.90;;;7.13;;
14007;SDS011;61651;45.508;12.232;2024-03-08T00:55:40;7.07;;;6.47;;
14007;SDS011;61651;45.508;12.232;2024-03-08T00:58:42;7.77;;;6.80;;
14007;SDS011;61651;45.508;12.232;2024-03-08T01:01:44;6.93;;;6.32;;
14007;SDS011;61651;45.508;12.232;2024-03-08T01:04:46;7.57;;;6.70;;
14007;SDS011;61651;45.508;12.232;2024-03-08T01:07:48;7.60;;;6.83;;
14007;SDS011;61651;45.508;12.232;2024-03-08T01:10:51;7.70;;;7.00;;
14007;SDS011;61651;45.508;12.232;2024-03-08T01:13:53;7.23;;;6.53;;
14007;SDS011;61651;45.508;12.232;2024-03-08T01:16:55;7.07;;;6.37;;
14007;SDS011;61651;45.508;12.232;2024-03-08T01:19:57;7.20;;;6.50;;
14007;SDS011;61651;45.508;12.232;2024-03-08T01:23:00;7.47;;;6.77;;
14007;SDS011;61651;45.508;12.232;2024-03-08T01:26:03;7.40;;;6.65;;
14007;SDS011;61651;45.508;12.232;2024-03-08T01:29:05;8.43;;;7.63;;
14007;SDS011;61651;45.508;12.232;2024-03-08T01:32:08;9.10;;;8.20;;
14007;SDS011;61651;45.508;12.232;2024-03-08T01:35:10;8.93;;;8.13;;
14007;SDS011;61651;45.508;12.232;2024-03-08T01:38:12;8.27;;;7.57;;
14007;SDS011;61651;45.508;12.232;2024-03-08T01:41:15;7.73;;;7.03;;
14007;SDS011;61651;45.508;12.232;2024-03-08T01:44:17;7.47;;;6.88;;
14007;SDS011;61651;45.508;12.232;2024-03-08T01:47:20;8.13;;;7.33;;
14007;SDS011;61651;45.508;12.232;2024-03-08T01:50:23;7.87;;;7.03;;
14007;SDS011;61651;45.508;12.232;2024-03-08T01:53:25;7.55;;;6.65;;
14007;SDS011;61651;45.508;12.232;2024-03-08T01:56:29;7.63;;;6.93;;
14007;SDS011;61651;45.508;12.232;2024-03-08T01:59:32;7.53;;;6.83;;
14007;SDS011;61651;45.508;12.232;2024-03-08T02:02:34;7.00;;;6.30;;
14007;SDS011;61651;45.508;12.232;2024-03-08T02:05:39;6.90;;;6.20;;
14007;SDS011;61651;45.508;12.232;2024-03-08T02:08:42;8.23;;;6.60;;
14007;SDS011;61651;45.508;12.232;2024-03-08T02:11:46;7.27;;;6.50;;
14007;SDS011;61651;45.508;12.232;2024-03-08T02:14:48;6.87;;;6.27;;
14007;SDS011;61651;45.508;12.232;2024-03-08T02:17:50;7.53;;;6.80;;
14007;SDS011;61651;45.508;12.232;2024-03-08T02:20:54;6.80;;;6.10;;
14007;SDS011;61651;45.508;12.232;2024-03-08T02:23:57;6.90;;;6.30;;
14007;SDS011;61651;45.508;12.232;2024-03-08T02:27:00;7.23;;;6.60;;
14007;SDS011;61651;45.508;12.232;2024-03-08T02:30:02;6.70;;;6.10;;
14007;SDS011;61651;45.508;12.232;2024-03-08T02:33:05;6.57;;;5.97;;
14007;SDS011;61651;45.508;12.232;2024-03-08T02:36:08;6.43;;;5.83;;
14007;SDS011;61651;45.508;12.232;2024-03-08T02:39:11;6.80;;;6.10;;
14007;SDS011;61651;45.508;12.232;2024-03-08T02:42:14;7.10;;;6.50;;
14007;SDS011;61651;45.508;12.232;2024-03-08T02:45:15;7.63;;;6.93;;
14007;SDS011;61651;45.508;12.232;2024-03-08T02:48:18;7.68;;;6.97;;
14007;SDS011;61651;45.508;12.232;2024-03-08T02:51:22;7.40;;;6.70;;
14007;SDS011;61651;45.508;12.232;2024-03-08T02:54:26;8.30;;;7.50;;
14007;SDS011;61651;45.508;12.232;2024-03-08T02:57:28;7.82;;;7.13;;
14007;SDS011;61651;45.508;12.232;2024-03-08T03:00:30;6.33;;;5.77;;
14007;SDS011;61651;45.508;12.232;2024-03-08T03:03:32;5.67;;;5.03;;
14007;SDS011;61651;45.508;12.232;2024-03-08T03:06:36;4.90;;;4.40;;
14007;SDS011;61651;45.508;12.232;2024-03-08T03:09:37;3.77;;;3.47;;
14007;SDS011;61651;45.508;12.232;2024-03-08T03:12:39;3.73;;;3.43;;
14007;SDS011;61651;45.508;12.232;2024-03-08T03:15:41;2.90;;;2.70;;
14007;SDS011;61651;45.508;12.232;2024-03-08T03:18:43;2.90;;;2.70;;
14007;SDS011;61651;45.508;12.232;2024-03-08T03:21:47;3.03;;;2.83;;
14007;SDS011;61651;45.508;12.232;2024-03-08T03:24:48;3.10;;;2.90;;
14007;SDS011;61651;45.508;12.232;2024-03-08T03:27:52;3.90;;;3.10;;
14007;SDS011;61651;45.508;12.232;2024-03-08T03:30:56;4.70;;;3.40;;
14007;SDS011;61651;45.508;12.232;2024-03-08T03:34:00;3.60;;;3.30;;
14007;SDS011;61651;45.508;12.232;2024-03-08T03:37:05;4.50;;;3.83;;
14007;SDS011;61651;45.508;12.232;2024-03-08T03:40:08;4.80;;;3.53;;
14007;SDS011;61651;45.508;12.232;2024-03-08T03:43:11;3.27;;;3.00;;
14007;SDS011;61651;45.508;12.232;2024-03-08T03:46:13;3.57;;;3.27;;
14007;SDS011;61651;45.508;12.232;2024-03-08T03:49:15;3.53;;;3.23;;
14007;SDS011;61651;45.508;12.232;2024-03-08T03:52:18;3.70;;;3.40;;
14007;SDS011;61651;45.508;12.232;2024-03-08T03:55:20;3.30;;;3.10;;
14007;SDS011;61651;45.508;12.232;2024-03-08T03:58:22;4.00;;;3.60;;
14007;SDS011;61651;45.508;12.232;2024-03-08T04:01:24;4.50;;;4.13;;
14007;SDS011;61651;45.508;12.232;2024-03-08T04:04:26;4.50;;;4.10;;
14007;SDS011;61651;45.508;12.232;2024-03-08T04:07:30;4.47;;;4.07;;
14007;SDS011;61651;45.508;12.232;2024-03-08T04:10:32;5.30;;;4.80;;
14007;SDS011;61651;45.508;12.232;2024-03-08T04:13:34;4.37;;;3.97;;
14007;SDS011;61651;45.508;12.232;2024-03-08T04:16:37;3.73;;;3.23;;
14007;SDS011;61651;45.508;12.232;2024-03-08T04:19:39;3.30;;;3.00;;
14007;SDS011;61651;45.508;12.232;2024-03-08T04:22:42;2.70;;;2.50;;
14007;SDS011;61651;45.508;12.232;2024-03-08T04:25:44;2.60;;;2.40;;
14007;SDS011;61651;45.508;12.232;2024-03-08T04:28:46;2.80;;;2.60;;
14007;SDS011;61651;45.508;12.232;2024-03-08T06:03:12;5.87;;;4.97;;
14007;SDS011;61651;45.508;12.232;2024-03-08T06:06:15;6.40;;;4.70;;
14007;SDS011;61651;45.508;12.232;2024-03-08T06:09:18;7.07;;;6.03;;
14007;SDS011;61651;45.508;12.232;2024-03-08T06:12:23;6.60;;;5.90;;
14007;SDS011;61651;45.508;12.232;2024-03-08T06:15:29;9.57;;;5.18;;
14007;SDS011;61651;45.508;12.232;2024-03-08T06:18:32;5.83;;;4.80;;
14007;SDS011;61651;45.508;12.232;2024-03-08T06:21:34;6.50;;;4.30;;
14007;SDS011;61651;45.508;12.232;2024-03-08T06:24:36;5.13;;;3.87;;
14007;SDS011;61651;45.508;12.232;2024-03-08T06:27:38;5.37;;;4.23;;
14007;SDS011;61651;45.508;12.232;2024-03-08T06:30:40;8.10;;;4.10;;
14007;SDS011;61651;45.508;12.232;2024-03-08T06:33:44;4.63;;;4.10;;
14007;SDS011;61651;45.508;12.232;2024-03-08T06:36:46;5.67;;;3.53;;
14007;SDS011;61651;45.508;12.232;2024-03-08T06:39:48;4.40;;;3.50;;
14007;SDS011;61651;45.508;12.232;2024-03-08T06:42:51;3.90;;;3.60;;
14007;SDS011;61651;45.508;12.232;2024-03-08T06:45:53;4.10;;;3.80;;
14007;SDS011;61651;45.508;12.232;2024-03-08T06:48:56;3.70;;;3.40;;
14007;SDS011;61651;45.508;12.232;2024-03-08T06:51:58;5.33;;;3.87;;
14007;SDS011;61651;45.508;12.232;2024-03-08T06:55:00;4.00;;;3.70;;
14007;SDS011;61651;45.508;12.232;2024-03-08T06:58:05;4.07;;;3.77;;
14007;SDS011;61651;45.508;12.232;2024-03-08T07:01:08;4.33;;;3.93;;
14007;SDS011;61651;45.508;12.232;2024-03-08T07:04:15;3.73;;;3.43;;
14007;SDS011;61651;45.508;12.232;2024-03-08T07:07:17;3.93;;;3.63;;
14007;SDS011;61651;45.508;12.232;2024-03-08T07:10:20;4.13;;;3.83;;
14007;SDS011;61651;45.508;12.232;2024-03-08T07:13:24;3.27;;;3.07;;
14007;SDS011;61651;45.508;12.232;2024-03-08T07:16:27;4.10;;;3.40;;
14007;SDS011;61651;45.508;12.232;2024-03-08T07:19:30;14.23;;;10.07;;
14007;SDS011;61651;45.508;12.232;2024-03-08T07:22:32;5.43;;;4.93;;
14007;SDS011;61651;45.508;12.232;2024-03-08T07:25:36;4.07;;;3.67;;
14007;SDS011;61651;45.508;12.232;2024-03-08T07:28:39;3.93;;;3.63;;
14007;SDS011;61651;45.508;12.232;2024-03-08T07:31:41;4.80;;;3.87;;
14007;SDS011;61651;45.508;12.232;2024-03-08T07:34:52;4.30;;;3.90;;
14007;SDS011;61651;45.508;12.232;2024-03-08T07:37:55;4.50;;;4.10;;
14007;SDS011;61651;45.508;12.232;2024-03-08T07:40:57;6.87;;;6.17;;
14007;SDS011;61651;45.508;12.232;2024-03-08T07:43:59;5.50;;;5.10;;
14007;SDS011;61651;45.508;12.232;2024-03-08T07:47:03;4.80;;;4.40;;
14007;SDS011;61651;45.508;12.232;2024-03-08T07:50:10;7.20;;;6.67;;
14007;SDS011;61651;45.508;12.232;2024-03-08T07:53:16;5.90;;;5.30;;
14007;SDS011;61651;45.508;12.232;2024-03-08T07:56:18;5.40;;;5.00;;
14007;SDS011;61651;45.508;12.232;2024-03-08T07:59:21;5.00;;;4.50;;
14007;SDS011;61651;45.508;12.232;2024-03-08T08:02:23;5.43;;;4.80;;
14007;SDS011;61651;45.508;12.232;2024-03-08T08:05:27;5.63;;;5.13;;
14007;SDS011;61651;45.508;12.232;2024-03-08T08:08:29;4.83;;;4.43;;
14007;SDS011;61651;45.508;12.232;2024-03-08T08:11:32;6.27;;;5.67;;
14007;SDS011;61651;45.508;12.232;2024-03-08T08:14:34;5.20;;;4.77;;
14007;SDS011;61651;45.508;12.232;2024-03-08T08:17:36;5.40;;;4.90;;
14007;SDS011;61651;45.508;12.232;2024-03-08T08:20:40;5.20;;;4.80;;
14007;SDS011;61651;45.508;12.232;2024-03-08T08:23:42;5.53;;;4.97;;
14007;SDS011;61651;45.508;12.232;2024-03-08T08:26:43;6.10;;;5.50;;
14007;SDS011;61651;45.508;12.232;2024-03-08T08:29:45;6.03;;;5.53;;
14007;SDS011;61651;45.508;12.232;2024-03-08T08:32:49;6.43;;;5.83;;
14007;SDS011;61651;45.508;12.232;2024-03-08T08:35:53;6.07;;;5.43;;
14007;SDS011;61651;45.508;12.232;2024-03-08T08:38:55;6.27;;;5.67;;
14007;SDS011;61651;45.508;12.232;2024-03-08T08:41:58;6.50;;;5.90;;
14007;SDS011;61651;45.508;12.232;2024-03-08T08:45:00;6.37;;;5.87;;
14007;SDS011;61651;45.508;12.232;2024-03-08T08:48:04;6.57;;;5.97;;
14007;SDS011;61651;45.508;12.232;2024-03-08T08:51:10;6.30;;;5.70;;
14007;SDS011;61651;45.508;12.232;2024-03-08T08:54:13;7.20;;;6.47;;
14007;SDS011;61651;45.508;12.232;2024-03-08T08:57:17;6.90;;;6.20;;
14007;SDS011;61651;45.508;12.232;2024-03-08T09:00:19;7.10;;;6.40;;
14007;SDS011;61651;45.508;12.232;2024-03-08T09:03:22;7.07;;;6.40;;
14007;SDS011;61651;45.508;12.232;2024-03-08T09:06:26;7.10;;;6.40;;
14007;SDS011;61651;45.508;12.232;2024-03-08T09:09:28;6.80;;;6.20;;
14007;SDS011;61651;45.508;12.232;2024-03-08T09:12:30;9.03;;;6.70;;
14007;SDS011;61651;45.508;12.232;2024-03-08T09:15:32;8.20;;;7.37;;
14007;SDS011;61651;45.508;12.232;2024-03-08T09:18:36;10.27;;;9.13;;
14007;SDS011;61651;45.508;12.232;2024-03-08T09:21:39;7.97;;;7.17;;
14007;SDS011;61651;45.508;12.232;2024-03-08T09:24:41;7.53;;;6.93;;
14007;SDS011;61651;45.508;12.232;2024-03-08T09:27:44;8.23;;;7.40;;
14007;SDS011;61651;45.508;12.232;2024-03-08T09:30:46;10.40;;;9.03;;
14007;SDS011;61651;45.508;12.232;2024-03-08T09:33:48;13.77;;;12.40;;
14007;SDS011;61651;45.508;12.232;2024-03-08T09:36:52;10.83;;;9.73;;
14007;SDS011;61651;45.508;12.232;2024-03-08T09:39:54;9.50;;;8.70;;
14007;SDS011;61651;45.508;12.232;2024-03-08T09:42:56;8.13;;;7.40;;
14007;SDS011;61651;45.508;12.232;2024-03-08T09:45:58;8.10;;;7.40;;
14007;SDS011;61651;45.508;12.232;2024-03-08T09:49:00;8.20;;;7.50;;
14007;SDS011;61651;45.508;12.232;2024-03-08T09:52:05;8.80;;;8.00;;
14007;SDS011;61651;45.508;12.232;2024-03-08T09:55:09;7.30;;;6.60;;
14007;SDS011;61651;45.508;12.232;2024-03-08T09:58:12;8.40;;;7.60;;
14007;SDS011;61651;45.508;12.232;2024-03-08T10:01:36;8.23;;;7.53;;
14007;SDS011;61651;45.508;12.232;2024-03-08T10:04:39;8.57;;;7.77;;
14007;SDS011;61651;45.508;12.232;2024-03-08T10:07:43;9.43;;;8.47;;
14007;SDS011;61651;45.508;12.232;2024-03-08T10:10:45;8.60;;;7.90;;
14007;SDS011;61651;45.508;12.232;2024-03-08T10:13:47;8.17;;;7.37;;
14007;SDS011;61651;45.508;12.232;2024-03-08T10:16:51;9.00;;;8.20;;
14007;SDS011;61651;45.508;12.232;2024-03-08T10:19:54;10.03;;;8.43;;
14007;SDS011;61651;45.508;12.232;2024-03-08T10:22:57;9.13;;;8.27;;
14007;SDS011;61651;45.508;12.232;2024-03-08T10:26:10;9.23;;;8.33;;
14007;SDS011;61651;45.508;12.232;2024-03-08T10:29:14;9.17;;;8.27;;
14007;SDS011;61651;45.508;12.232;2024-03-08T10:32:17;9.03;;;8.23;;
14007;SDS011;61651;45.508;12.232;2024-03-08T10:35:20;8.63;;;7.83;;
14007;SDS011;61651;45.508;12.232;2024-03-08T10:38:24;9.27;;;8.37;;
14007;SDS011;61651;45.508;12.232;2024-03-08T10:41:32;9.27;;;8.37;;
14007;SDS011;61651;45.508;12.232;2024-03-08T10:44:40;8.50;;;7.70;;
14007;SDS011;61651;45.508;12.232;2024-03-08T10:47:54;8.87;;;8.07;;
14007;SDS011;61651;45.508;12.232;2024-03-08T10:51:05;8.20;;;7.50;;
14007;SDS011;61651;45.508;12.232;2024-03-08T10:54:12;8.93;;;8.03;;
14007;SDS011;61651;45.508;12.232;2024-03-08T10:57:17;8.40;;;7.60;;
14007;SDS011;61651;45.508;12.232;2024-03-08T11:00:20;9.60;;;8.60;;
14007;SDS011;61651;45.508;12.232;2024-03-08T11:03:45;7.70;;;7.00;;
14007;SDS011;61651;45.508;12.232;2024-03-08T11:06:50;8.50;;;7.50;;
14007;SDS011;61651;45.508;12.232;2024-03-08T11:09:55;8.30;;;7.50;;
14007;SDS011;61651;45.508;12.232;2024-03-08T11:12:57;8.20;;;7.40;;
14007;SDS011;61651;45.508;12.232;2024-03-08T11:15:59;8.73;;;7.93;;
14007;SDS011;61651;45.508;12.232;2024-03-08T11:19:06;8.60;;;7.80;;
14007;SDS011;61651;45.508;12.232;2024-03-08T11:22:26;8.07;;;7.27;;
14007;SDS011;61651;45.508;12.232;2024-03-08T11:25:33;7.60;;;6.90;;
14007;SDS011;61651;45.508;12.232;2024-03-08T11:28:41;8.40;;;7.60;;
14007;SDS011;61651;45.508;12.232;2024-03-08T11:31:43;8.90;;;8.10;;
14007;SDS011;61651;45.508;12.232;2024-03-08T11:34:46;8.13;;;7.43;;
14007;SDS011;61651;45.508;12.232;2024-03-08T11:37:50;9.50;;;7.87;;
14007;SDS011;61651;45.508;12.232;2024-03-08T11:40:53;8.98;;;8.07;;
14007;SDS011;61651;45.508;12.232;2024-03-08T11:44:01;11.70;;;8.83;;
14007;SDS011;61651;45.508;12.232;2024-03-08T11:47:08;9.90;;;8.30;;
14007;SDS011;61651;45.508;12.232;2024-03-08T11:50:10;15.30;;;9.37;;
14007;SDS011;61651;45.508;12.232;2024-03-08T11:53:12;17.83;;;10.50;;
14007;SDS011;61651;45.508;12.232;2024-03-08T11:56:16;13.70;;;8.87;;
14007;SDS011;61651;45.508;12.232;2024-03-08T11:59:20;10.03;;;8.77;;
14007;SDS011;61651;45.508;12.232;2024-03-08T12:02:22;11.10;;;8.40;;
14007;SDS011;61651;45.508;12.232;2024-03-08T12:05:24;9.27;;;8.30;;
14007;SDS011;61651;45.508;12.232;2024-03-08T12:08:26;12.23;;;9.00;;
14007;SDS011;61651;45.508;12.232;2024-03-08T12:11:31;9.23;;;8.27;;
14007;SDS011;61651;45.508;12.232;2024-03-08T12:14:33;10.20;;;8.60;;
14007;SDS011;61651;45.508;12.232;2024-03-08T12:17:35;10.17;;;8.57;;
14007;SDS011;61651;45.508;12.232;2024-03-08T12:20:37;9.30;;;8.10;;
14007;SDS011;61651;45.508;12.232;2024-03-08T12:23:40;12.43;;;8.90;;
14007;SDS011;61651;45.508;12.232;2024-03-08T12:26:43;9.10;;;7.83;;
14007;SDS011;61651;45.508;12.232;2024-03-08T12:29:46;11.03;;;8.60;;
14007;SDS011;61651;45.508;12.232;2024-03-08T12:32:49;8.10;;;7.40;;
14007;SDS011;61651;45.508;12.232;2024-03-08T12:35:54;12.30;;;8.60;;
14007;SDS011;61651;45.508;12.232;2024-03-08T12:38:58;9.07;;;8.13;;
14007;SDS011;61651;45.508;12.232;2024-03-08T12:42:02;9.23;;;8.13;;
14007;SDS011;61651;45.508;12.232;2024-03-08T12:45:05;10.33;;;8.70;;
14007;SDS011;61651;45.508;12.232;2024-03-08T12:48:12;8.27;;;7.47;;
14007;SDS011;61651;45.508;12.232;2024-03-08T12:51:15;9.27;;;8.33;;
14007;SDS011;61651;45.508;12.232;2024-03-08T12:54:18;9.27;;;8.37;;
14007;SDS011;61651;45.508;12.232;2024-03-08T12:57:24;9.03;;;8.13;;
14007;SDS011;61651;45.508;12.232;2024-03-08T13:00:28;9.57;;;8.67;;
14007;SDS011;61651;45.508;12.232;2024-03-08T13:03:30;9.20;;;8.13;;
14007;SDS011;61651;45.508;12.232;2024-03-08T13:06:33;9.03;;;8.23;;
14007;SDS011;61651;45.508;12.232;2024-03-08T13:09:35;8.87;;;7.97;;
14007;SDS011;61651;45.508;12.232;2024-03-08T13:12:39;9.30;;;8.40;;
14007;SDS011;61651;45.508;12.232;2024-03-08T13:15:41;9.33;;;8.40;;
14007;SDS011;61651;45.508;12.232;2024-03-08T13:18:45;8.20;;;7.50;;
14007;SDS011;61651;45.508;12.232;2024-03-08T13:21:48;8.80;;;7.90;;
14007;SDS011;61651;45.508;12.232;2024-03-08T13:24:51;10.00;;;9.00;;
14007;SDS011;61651;45.508;12.232;2024-03-08T13:27:54;10.13;;;8.67;;
14007;SDS011;61651;45.508;12.232;2024-03-08T13:30:59;9.30;;;8.40;;
14007;SDS011;61651;45.508;12.232;2024-03-08T13:34:01;9.13;;;8.23;;
14007;SDS011;61651;45.508;12.232;2024-03-08T13:37:05;9.60;;;8.47;;
14007;SDS011;61651;45.508;12.232;2024-03-08T13:40:10;10.03;;;9.07;;
14007;SDS011;61651;45.508;12.232;2024-03-08T13:43:15;8.87;;;8.07;;
14007;SDS011;61651;45.508;12.232;2024-03-08T13:46:17;9.30;;;8.40;;
14007;SDS011;61651;45.508;12.232;2024-03-08T13:49:19;9.10;;;8.20;;
14007;SDS011;61651;45.508;12.232;2024-03-08T13:52:21;9.33;;;8.17;;
14007;SDS011;61651;45.508;12.232;2024-03-08T13:55:25;9.73;;;8.73;;
14007;SDS011;61651;45.508;12.232;2024-03-08T13:58:28;9.33;;;8.00;;
14007;SDS011;61651;45.508;12.232;2024-03-08T14:01:30;9.57;;;8.67;;
14007;SDS011;61651;45.508;12.232;2024-03-08T14:04:32;9.73;;;8.73;;
14007;SDS011;61651;45.508;12.232;2024-03-08T14:07:34;9.93;;;8.93;;
14007;SDS011;61651;45.508;12.232;2024-03-08T14:10:36;10.20;;;9.10;;
14007;SDS011;61651;45.508;12.232;2024-03-08T14:13:43;9.70;;;8.80;;
14007;SDS011;61651;45.508;12.232;2024-03-08T14:16:45;9.60;;;8.60;;
14007;SDS011;61651;45.508;12.232;2024-03-08T14:19:47;9.90;;;8.90;;
14007;SDS011;61651;45.508;12.232;2024-03-08T14:22:50;9.50;;;8.53;;
14007;SDS011;61651;45.508;12.232;2024-03-08T14:25:52;10.97;;;9.47;;
14007;SDS011;61651;45.508;12.232;2024-03-08T14:28:56;9.27;;;8.27;;
14007;SDS011;61651;45.508;12.232;2024-03-08T14:31:58;9.70;;;8.80;;
14007;SDS011;61651;45.508;12.232;2024-03-08T14:35:01;9.17;;;8.27;;
14007;SDS011;61651;45.508;12.232;2024-03-08T14:38:03;9.73;;;8.67;;
14007;SDS011;61651;45.508;12.232;2024-03-08T14:41:08;9.70;;;8.80;;
14007;SDS011;61651;45.508;12.232;2024-03-08T14:44:11;9.17;;;8.27;;
14007;SDS011;61651;45.508;12.232;2024-03-08T14:47:13;9.13;;;8.27;;
14007;SDS011;61651;45.508;12.232;2024-03-08T14:50:16;10.47;;;8.57;;
14007;SDS011;61651;45.508;12.232;2024-03-08T14:53:18;9.47;;;8.67;;
14007;SDS011;61651;45.508;12.232;2024-03-08T14:56:20;8.93;;;8.03;;
14007;SDS011;61651;45.508;12.232;2024-03-08T14:59:24;8.93;;;8.10;;
14007;SDS011;61651;45.508;12.232;2024-03-08T15:02:29;9.63;;;8.57;;
14007;SDS011;61651;45.508;12.232;2024-03-08T15:05:32;9.07;;;8.27;;
14007;SDS011;61651;45.508;12.232;2024-03-08T15:08:38;9.17;;;8.37;;
14007;SDS011;61651;45.508;12.232;2024-03-08T15:11:41;8.40;;;7.60;;
14007;SDS011;61651;45.508;12.232;2024-03-08T15:14:44;8.87;;;7.97;;
14007;SDS011;61651;45.508;12.232;2024-03-08T15:17:46;8.67;;;7.87;;
14007;SDS011;61651;45.508;12.232;2024-03-08T15:20:48;9.93;;;8.93;;
14007;SDS011;61651;45.508;12.232;2024-03-08T15:23:51;8.37;;;7.57;;
14007;SDS011;61651;45.508;12.232;2024-03-08T15:26:54;11.07;;;9.73;;
14007;SDS011;61651;45.508;12.232;2024-03-08T15:29:59;9.93;;;8.93;;
14007;SDS011;61651;45.508;12.232;2024-03-08T15:33:01;8.90;;;7.77;;
14007;SDS011;61651;45.508;12.232;2024-03-08T15:36:03;9.37;;;8.57;;
14007;SDS011;61651;45.508;12.232;2024-03-08T15:39:09;10.70;;;9.70;;
14007;SDS011;61651;45.508;12.232;2024-03-08T15:42:11;11.37;;;10.27;;
14007;SDS011;61651;45.508;12.232;2024-03-08T15:45:15;10.50;;;9.50;;
14007;SDS011;61651;45.508;12.232;2024-03-08T15:48:17;11.30;;;10.00;;
14007;SDS011;61651;45.508;12.232;2024-03-08T15:51:19;10.47;;;9.43;;
14007;SDS011;61651;45.508;12.232;2024-03-08T15:54:21;10.97;;;9.87;;
14007;SDS011;61651;45.508;12.232;2024-03-08T15:57:23;10.10;;;9.10;;
14007;SDS011;61651;45.508;12.232;2024-03-08T16:00:26;11.47;;;10.27;;
14007;SDS011;61651;45.508;12.232;2024-03-08T16:03:35;11.23;;;9.13;;
14007;SDS011;61651;45.508;12.232;2024-03-08T16:06:37;11.10;;;10.00;;
14007;SDS011;61651;45.508;12.232;2024-03-08T16:09:40;9.97;;;8.97;;
14007;SDS011;61651;45.508;12.232;2024-03-08T16:12:42;9.77;;;8.73;;
14007;SDS011;61651;45.508;12.232;2024-03-08T16:15:46;10.07;;;8.97;;
14007;SDS011;61651;45.508;12.232;2024-03-08T16:18:49;9.50;;;8.27;;
14007;SDS011;61651;45.508;12.232;2024-03-08T16:21:51;8.57;;;7.77;;
14007;SDS011;61651;45.508;12.232;2024-03-08T16:24:53;8.77;;;7.97;;
14007;SDS011;61651;45.508;12.232;2024-03-08T16:27:56;9.27;;;8.37;;
14007;SDS011;61651;45.508;12.232;2024-03-08T16:30:59;8.70;;;7.90;;
14007;SDS011;61651;45.508;12.232;2024-03-08T16:34:01;8.93;;;8.03;;
14007;SDS011;61651;45.508;12.232;2024-03-08T16:37:04;8.03;;;7.23;;
14007;SDS011;61651;45.508;12.232;2024-03-08T16:40:06;10.27;;;9.27;;
14007;SDS011;61651;45.508;12.232;2024-03-08T16:43:15;14.17;;;12.77;;
14007;SDS011;61651;45.508;12.232;2024-03-08T16:46:20;12.57;;;11.27;;
14007;SDS011;61651;45.508;12.232;2024-03-08T16:49:22;9.73;;;8.73;;
14007;SDS011;61651;45.508;12.232;2024-03-08T16:52:24;10.17;;;9.03;;
14007;SDS011;61651;45.508;12.232;2024-03-08T16:55:26;10.53;;;9.43;;
14007;SDS011;61651;45.508;12.232;2024-03-08T16:58:30;9.90;;;8.90;;
14007;SDS011;61651;45.508;12.232;2024-03-08T17:01:35;12.90;;;11.20;;
14007;SDS011;61651;45.508;12.232;2024-03-08T17:04:38;12.93;;;11.63;;
14007;SDS011;61651;45.508;12.232;2024-03-08T17:07:40;11.37;;;10.30;;
14007;SDS011;61651;45.508;12.232;2024-03-08T17:10:42;9.13;;;8.10;;
14007;SDS011;61651;45.508;12.232;2024-03-08T17:13:45;11.03;;;9.83;;
14007;SDS011;61651;45.508;12.232;2024-03-08T17:16:49;8.73;;;7.93;;
14007;SDS011;61651;45.508;12.232;2024-03-08T17:19:51;10.67;;;9.63;;
14007;SDS011;61651;45.508;12.232;2024-03-08T17:22:55;10.53;;;9.43;;
14007;SDS011;61651;45.508;12.232;2024-03-08T17:25:58;13.43;;;12.03;;
14007;SDS011;61651;45.508;12.232;2024-03-08T17:29:01;11.37;;;10.23;;
14007;SDS011;61651;45.508;12.232;2024-03-08T17:32:05;12.07;;;10.90;;
14007;SDS011;61651;45.508;12.232;2024-03-08T17:35:08;10.10;;;9.10;;
14007;SDS011;61651;45.508;12.232;2024-03-08T17:38:12;12.70;;;11.40;;
14007;SDS011;61651;45.508;12.232;2024-03-08T17:41:16;11.30;;;10.10;;
14007;SDS011;61651;45.508;12.232;2024-03-08T17:44:22;13.73;;;12.33;;
14007;SDS011;61651;45.508;12.232;2024-03-08T17:47:28;11.97;;;10.87;;
14007;SDS011;61651;45.508;12.232;2024-03-08T17:50:31;9.50;;;8.53;;
14007;SDS011;61651;45.508;12.232;2024-03-08T17:53:32;9.57;;;8.10;;
14007;SDS011;61651;45.508;12.232;2024-03-08T17:56:35;9.83;;;9.00;;
14007;SDS011;61651;45.508;12.232;2024-03-08T17:59:37;12.10;;;10.93;;
14007;SDS011;61651;45.508;12.232;2024-03-08T18:02:40;11.87;;;10.67;;
14007;SDS011;61651;45.508;12.232;2024-03-08T18:05:42;9.87;;;8.97;;
14007;SDS011;61651;45.508;12.232;2024-03-08T18:08:44;8.97;;;8.17;;
14007;SDS011;61651;45.508;12.232;2024-03-08T18:11:46;9.87;;;8.97;;
14007;SDS011;61651;45.508;12.232;2024-03-08T18:14:50;9.07;;;8.23;;
14007;SDS011;61651;45.508;12.232;2024-03-08T18:17:55;9.53;;;8.57;;
14007;SDS011;61651;45.508;12.232;2024-03-08T18:21:03;10.30;;;9.23;;
14007;SDS011;61651;45.508;12.232;2024-03-08T18:24:06;10.03;;;9.10;;
14007;SDS011;61651;45.508;12.232;2024-03-08T18:27:09;9.80;;;8.80;;
14007;SDS011;61651;45.508;12.232;2024-03-08T18:30:14;9.40;;;8.20;;
14007;SDS011;61651;45.508;12.232;2024-03-08T18:33:18;9.60;;;8.60;;
14007;SDS011;61651;45.508;12.232;2024-03-08T18:36:22;8.90;;;8.10;;
14007;SDS011;61651;45.508;12.232;2024-03-08T18:39:24;8.50;;;7.70;;
14007;SDS011;61651;45.508;12.232;2024-03-08T18:42:27;9.27;;;8.07;;
14007;SDS011;61651;45.508;12.232;2024-03-08T18:45:30;8.90;;;8.03;;
14007;SDS011;61651;45.508;12.232;2024-03-08T18:48:35;8.63;;;7.83;;
14007;SDS011;61651;45.508;12.232;2024-03-08T18:51:39;9.00;;;8.10;;
14007;SDS011;61651;45.508;12.232;2024-03-08T18:54:44;7.83;;;7.07;;
14007;SDS011;61651;45.508;12.232;2024-03-08T18:57:46;8.87;;;7.97;;
14007;SDS011;61651;45.508;12.232;2024-03-08T19:00:49;8.40;;;7.70;;
14007;SDS011;61651;45.508;12.232;2024-03-08T19:03:56;9.23;;;8.33;;
14007;SDS011;61651;45.508;12.232;2024-03-08T19:06:58;8.83;;;7.93;;
14007;SDS011;61651;45.508;12.232;2024-03-08T19:10:00;13.23;;;9.37;;
14007;SDS011;61651;45.508;12.232;2024-03-08T19:13:06;9.00;;;8.20;;
14007;SDS011;61651;45.508;12.232;2024-03-08T19:16:11;8.57;;;7.67;;
14007;SDS011;61651;45.508;12.232;2024-03-08T19:19:17;9.03;;;7.93;;
14007;SDS011;61651;45.508;12.232;2024-03-08T19:22:21;10.43;;;7.97;;
14007;SDS011;61651;45.508;12.232;2024-03-08T19:25:23;8.47;;;7.23;;
14007;SDS011;61651;45.508;12.232;2024-03-08T19:28:28;8.30;;;7.40;;
14007;SDS011;61651;45.508;12.232;2024-03-08T19:31:30;8.73;;;7.93;;
14007;SDS011;61651;45.508;12.232;2024-03-08T19:34:33;7.83;;;7.13;;